Terminal Aerodrome Forecast
Issued by NWS Tulsa, OK

Home | Current Version | Previous Version | Text Only | Print | Product List | Glossary On
Versions: 1 2 3 4 5 6 7 8 9 10 11 12 13 14
526
FTUS44 KTSA 180520
TAFTUL
TAF
KTUL 180520Z 1806/1906 19017G24KT P6SM BKN250
     FM181000 29013G22KT P6SM BKN250
     FM181200 34025G35KT P6SM BKN025
     FM181800 34022G32KT P6SM BKN050
     FM182100 34015G24KT P6SM SCT050
     FM190000 32009KT P6SM SKC=

USA.gov is the U.S. government's official web portal to all federal, state and local government web resources and services.